createdAt,value
2018-03-03T01:43:17.008Z,-8.47
2018-03-03T01:43:17.571Z,-8.44
2018-03-03T01:43:18.172Z,-8.48
2018-03-03T01:43:18.771Z,-8.38
2018-03-03T01:43:19.372Z,-8.39
2018-03-03T01:43:19.970Z,-8.44
2018-03-03T01:43:20.571Z,-8.37
2018-03-03T01:44:14.525Z,-8.50
2018-03-03T01:44:15.127Z,-8.44
2018-03-03T01:44:15.721Z,-8.39
2018-03-03T01:44:16.323Z,-8.47
2018-03-03T01:44:16.922Z,-8.48
2018-03-03T01:44:17.523Z,-8.50
2018-03-03T01:44:18.122Z,-8.52
2018-03-03T01:45:32.146Z,-8.55
2018-03-03T01:45:32.744Z,-8.44
2018-03-03T01:45:33.343Z,-8.53
2018-03-03T01:45:33.946Z,-8.47
2018-03-03T01:45:34.543Z,-8.55
2018-03-03T01:45:35.142Z,-8.50
2018-03-03T01:45:35.742Z,-8.44
2018-03-03T01:46:29.697Z,-8.44
2018-03-03T01:46:30.296Z,-8.44
2018-03-03T01:46:30.893Z,-8.55
2018-03-03T01:46:31.493Z,-8.44
2018-03-03T01:46:32.112Z,-8.48
2018-03-03T01:46:32.693Z,-8.45
2018-03-03T01:46:33.291Z,-8.45
2018-03-03T01:47:47.321Z,-8.48
2018-03-03T01:47:47.915Z,-8.52
2018-03-03T01:47:48.515Z,-8.47
2018-03-03T01:47:49.113Z,-8.50
2018-03-03T01:47:49.712Z,-8.47
2018-03-03T01:47:50.313Z,-8.44
2018-03-03T01:47:50.912Z,-8.44
2018-03-03T01:48:44.900Z,-8.50
2018-03-03T01:48:45.465Z,-8.44
2018-03-03T01:48:46.064Z,-8.45
2018-03-03T01:48:46.663Z,-8.45
2018-03-03T01:48:47.264Z,-8.44
2018-03-03T01:48:47.862Z,-8.45
2018-03-03T01:48:48.467Z,-8.47
2018-03-03T01:50:02.490Z,-8.45
2018-03-03T01:50:03.085Z,-8.50
2018-03-03T01:50:03.683Z,-8.44
2018-03-03T01:50:04.282Z,-8.52
2018-03-03T01:50:04.883Z,-8.47
2018-03-03T01:50:05.483Z,-8.45
2018-03-03T01:50:06.085Z,-8.42
2018-03-03T01:51:00.038Z,-8.52
2018-03-03T01:51:00.634Z,-8.47
2018-03-03T01:51:01.234Z,-8.47
2018-03-03T01:51:01.832Z,-8.52
2018-03-03T01:51:02.433Z,-8.47
2018-03-03T01:51:03.033Z,-8.48
2018-03-03T01:51:03.637Z,-8.52
2018-03-03T01:52:17.658Z,-8.45
2018-03-03T01:52:18.255Z,-8.47
2018-03-03T01:52:18.854Z,-8.48
2018-03-03T01:52:19.454Z,-8.50
2018-03-03T01:52:20.062Z,-8.44
2018-03-03T01:52:20.652Z,-8.44
2018-03-03T01:52:21.253Z,-8.48
2018-03-03T01:53:15.208Z,-8.39
2018-03-03T01:53:15.803Z,-8.44
2018-03-03T01:53:16.402Z,-8.48
2018-03-03T01:53:17.001Z,-8.44
2018-03-03T01:53:17.604Z,-8.41
2018-03-03T01:53:18.201Z,-8.47
2018-03-03T01:53:18.803Z,-8.42
2018-03-03T01:54:32.859Z,-8.38
2018-03-03T01:54:33.421Z,-8.45
2018-03-03T01:54:34.022Z,-8.31
2018-03-03T01:54:34.620Z,-8.44
2018-03-03T01:54:35.221Z,-8.35
2018-03-03T01:54:35.820Z,-8.29
2018-03-03T01:54:36.420Z,-8.38
2018-03-03T01:55:30.377Z,-8.38
2018-03-03T01:55:30.971Z,-8.41
2018-03-03T01:55:31.572Z,-8.41
2018-03-03T01:55:32.171Z,-8.35
2018-03-03T01:55:32.773Z,-8.44
2018-03-03T01:55:33.374Z,-8.38
2018-03-03T01:55:33.972Z,-8.38
2018-03-03T01:56:47.995Z,-8.34
2018-03-03T01:56:48.592Z,-8.27
2018-03-03T01:56:49.191Z,-8.29
2018-03-03T01:56:49.796Z,-8.26
2018-03-03T01:56:50.391Z,-8.29
2018-03-03T01:56:50.990Z,-8.37
2018-03-03T01:56:51.592Z,-8.35
2018-03-03T01:57:45.647Z,-8.27
2018-03-03T01:57:46.244Z,-8.29
2018-03-03T01:57:46.843Z,-8.34
2018-03-03T01:57:47.443Z,-8.29
2018-03-03T01:57:48.044Z,-8.32
2018-03-03T01:57:48.643Z,-8.27
2018-03-03T01:57:49.242Z,-8.29
2018-03-03T01:58:43.305Z,-8.23
2018-03-03T01:58:43.895Z,-8.24
2018-03-03T01:58:44.495Z,-8.24
2018-03-03T01:58:45.095Z,-8.21
2018-03-03T01:58:45.694Z,-8.26
2018-03-03T01:58:46.296Z,-8.23
2018-03-03T01:58:46.894Z,-8.27
2018-03-03T01:59:40.983Z,-8.16
2018-03-03T01:59:41.550Z,-8.29
2018-03-03T01:59:42.748Z,-8.23
2018-03-03T01:59:43.347Z,-8.17
2018-03-03T01:59:43.947Z,-8.17
2018-03-03T01:59:44.554Z,-8.31
2018-03-03T02:00:38.505Z,-8.26
2018-03-03T02:00:39.096Z,-8.24
2018-03-03T02:00:39.698Z,-8.10
2018-03-03T02:00:40.296Z,-8.21
2018-03-03T02:00:40.909Z,-8.26
2018-03-03T02:00:41.495Z,-8.26
2018-03-03T02:00:42.099Z,-8.17
2018-03-03T02:01:56.121Z,-8.16
2018-03-03T02:01:56.722Z,-8.13
2018-03-03T02:01:57.318Z,-8.19
2018-03-03T02:01:57.936Z,-8.23
2018-03-03T02:01:58.519Z,-8.24
2018-03-03T02:01:59.115Z,-8.14
2018-03-03T02:01:59.716Z,-8.13
2018-03-03T02:02:53.776Z,-8.09
2018-03-03T02:02:54.367Z,-8.14
2018-03-03T02:02:54.968Z,-8.13
2018-03-03T02:02:55.568Z,-8.16
2018-03-03T02:02:56.168Z,-8.09
2018-03-03T02:02:56.770Z,-8.10
2018-03-03T02:02:57.371Z,-8.13
2018-03-03T02:03:50.912Z,-8.10
2018-03-03T02:03:51.510Z,-8.14
2018-03-03T02:03:52.109Z,-8.10
2018-03-03T02:03:52.711Z,-8.09
2018-03-03T02:03:53.308Z,-8.10
2018-03-03T02:03:53.907Z,-8.10
2018-03-03T02:03:54.510Z,-8.09
2018-03-03T02:03:55.113Z,-8.05
2018-03-03T02:04:49.106Z,-8.05
2018-03-03T02:04:49.674Z,-8.10
2018-03-03T02:04:50.273Z,-8.13
2018-03-03T02:04:50.871Z,-8.05
2018-03-03T02:04:51.472Z,-8.06
2018-03-03T02:04:52.073Z,-8.03
2018-03-03T02:04:52.677Z,-8.08
2018-03-03T02:05:47.342Z,-8.05
2018-03-03T02:05:47.938Z,-8.05
2018-03-03T02:05:48.538Z,-8.08
2018-03-03T02:05:49.137Z,-8.02
2018-03-03T02:05:49.739Z,-8.09
2018-03-03T02:05:50.337Z,-7.98
2018-03-03T02:05:50.947Z,-8.08
2018-03-03T02:06:44.993Z,-8.08
2018-03-03T02:06:45.589Z,-8.02
2018-03-03T02:06:46.192Z,-8.09
2018-03-03T02:06:46.789Z,-8.10
2018-03-03T02:06:47.393Z,-8.06
2018-03-03T02:06:47.988Z,-8.08
2018-03-03T02:06:48.589Z,-8.02
2018-03-03T02:07:42.643Z,-8.05
2018-03-03T02:07:43.241Z,-8.05
2018-03-03T02:07:43.844Z,-8.02
2018-03-03T02:07:44.442Z,-8.16
2018-03-03T02:07:45.041Z,-7.99
2018-03-03T02:07:45.641Z,-8.05
2018-03-03T02:07:46.242Z,-8.05
2018-03-03T02:08:40.297Z,-7.99
2018-03-03T02:08:40.893Z,-8.02
2018-03-03T02:08:41.495Z,-8.08
2018-03-03T02:08:42.092Z,-8.06
2018-03-03T02:08:42.695Z,-8.05
2018-03-03T02:08:43.292Z,-8.14
2018-03-03T02:08:43.891Z,-8.03
2018-03-03T02:09:37.949Z,-7.94
2018-03-03T02:09:38.544Z,-7.99
2018-03-03T02:09:39.147Z,-7.98
2018-03-03T02:09:39.743Z,-7.99
2018-03-03T02:09:40.343Z,-7.99
2018-03-03T02:09:40.942Z,-7.97
2018-03-03T02:09:41.546Z,-7.99
2018-03-03T02:10:35.631Z,-7.91
2018-03-03T02:10:36.196Z,-7.94
2018-03-03T02:10:36.798Z,-7.98
2018-03-03T02:10:37.396Z,-7.94
2018-03-03T02:10:37.996Z,-8.06
2018-03-03T02:10:38.596Z,-8.03
2018-03-03T02:10:39.197Z,-7.91
2018-03-03T02:11:33.252Z,-8.02
2018-03-03T02:11:33.851Z,-7.90
2018-03-03T02:11:34.450Z,-7.99
2018-03-03T02:11:35.047Z,-7.95
2018-03-03T02:11:35.648Z,-7.95
2018-03-03T02:11:36.246Z,-7.97
2018-03-03T02:11:36.850Z,-7.95
2018-03-03T02:12:30.903Z,-7.94
2018-03-03T02:12:31.500Z,-7.95
2018-03-03T02:12:32.101Z,-7.91
2018-03-03T02:12:32.698Z,-8.03
2018-03-03T02:12:33.299Z,-7.94
2018-03-03T02:12:33.899Z,-7.90
2018-03-03T02:12:34.498Z,-7.94
2018-03-03T02:13:28.558Z,-7.94
2018-03-03T02:13:29.153Z,-7.87
2018-03-03T02:13:29.753Z,-7.91
2018-03-03T02:13:30.350Z,-7.98
2018-03-03T02:13:30.950Z,-7.91
2018-03-03T02:13:31.550Z,-7.98
2018-03-03T02:13:32.156Z,-7.97
2018-03-03T02:14:26.210Z,-7.91
2018-03-03T02:14:26.803Z,-7.91
2018-03-03T02:14:27.403Z,-7.94
2018-03-03T02:14:28.004Z,-7.95
2018-03-03T02:14:28.603Z,-7.95
2018-03-03T02:14:29.202Z,-7.87
2018-03-03T02:14:29.804Z,-7.95
2018-03-03T02:15:23.859Z,-7.90
2018-03-03T02:15:24.455Z,-7.94
2018-03-03T02:15:25.056Z,-7.99
2018-03-03T02:15:25.655Z,-7.97
2018-03-03T02:15:26.254Z,-7.98
2018-03-03T02:15:26.854Z,-7.98
2018-03-03T02:15:27.454Z,-7.94
2018-03-03T02:16:21.545Z,-7.91
2018-03-03T02:16:22.106Z,-7.88
2018-03-03T02:16:22.708Z,-7.90
2018-03-03T02:16:23.313Z,-7.88
2018-03-03T02:16:23.906Z,-7.94
2018-03-03T02:16:24.506Z,-7.88
2018-03-03T02:16:25.104Z,-7.94
2018-03-03T02:17:19.162Z,-7.88
2018-03-03T02:17:19.761Z,-7.86
2018-03-03T02:17:20.357Z,-7.88
2018-03-03T02:17:20.957Z,-7.88
2018-03-03T02:17:21.558Z,-7.88
2018-03-03T02:17:22.156Z,-7.87
2018-03-03T02:17:22.756Z,-7.87
2018-03-03T02:18:16.812Z,-7.81
2018-03-03T02:18:17.409Z,-7.79
2018-03-03T02:18:18.012Z,-7.84
2018-03-03T02:18:18.614Z,-7.81
2018-03-03T02:18:19.209Z,-7.87
2018-03-03T02:18:19.808Z,-7.81
2018-03-03T02:18:20.410Z,-7.90
2018-03-03T02:19:14.463Z,-7.80
2018-03-03T02:19:15.071Z,-7.81
2018-03-03T02:19:15.660Z,-7.83
2018-03-03T02:19:16.264Z,-7.83
2018-03-03T02:19:16.858Z,-7.80
2018-03-03T02:19:17.459Z,-7.97
2018-03-03T02:19:18.060Z,-7.87
2018-03-03T02:20:12.114Z,-7.90
2018-03-03T02:20:12.713Z,-7.84
2018-03-03T02:20:13.313Z,-7.81
2018-03-03T02:20:13.912Z,-7.79
2018-03-03T02:20:14.512Z,-7.79
2018-03-03T02:20:15.126Z,-7.88
2018-03-03T02:20:15.712Z,-7.88
2018-03-03T02:21:09.769Z,-7.79
2018-03-03T02:21:10.364Z,-7.83
2018-03-03T02:21:10.963Z,-7.87
2018-03-03T02:21:11.564Z,-7.81
2018-03-03T02:21:12.164Z,-7.80
2018-03-03T02:21:12.763Z,-7.83
2018-03-03T02:21:13.363Z,-7.80
2018-03-03T02:22:07.454Z,-7.79
2018-03-03T02:22:08.017Z,-7.80
2018-03-03T02:22:08.616Z,-7.87
2018-03-03T02:22:09.216Z,-7.86
2018-03-03T02:22:09.816Z,-7.83
2018-03-03T02:22:10.416Z,-7.79
2018-03-03T02:22:11.016Z,-7.80
2018-03-03T02:23:05.072Z,-7.72
2018-03-03T02:23:05.668Z,-7.83
2018-03-03T02:23:06.267Z,-7.83
2018-03-03T02:23:06.868Z,-7.76
2018-03-03T02:23:07.467Z,-7.81
2018-03-03T02:23:08.069Z,-7.76
2018-03-03T02:23:08.668Z,-7.81
2018-03-03T02:24:02.724Z,-7.79
2018-03-03T02:24:03.321Z,-7.81
2018-03-03T02:24:03.920Z,-7.84
2018-03-03T02:24:04.519Z,-7.80
2018-03-03T02:24:05.122Z,-7.79
2018-03-03T02:24:05.725Z,-7.76
2018-03-03T02:24:06.319Z,-7.77
2018-03-03T02:25:00.376Z,-7.84
2018-03-03T02:25:00.971Z,-7.79
2018-03-03T02:25:01.573Z,-7.81
2018-03-03T02:25:02.173Z,-7.81
2018-03-03T02:25:02.775Z,-7.79
2018-03-03T02:25:03.372Z,-7.81
2018-03-03T02:25:03.972Z,-7.79
2018-03-03T02:25:58.027Z,-7.74
2018-03-03T02:25:58.626Z,-7.81
2018-03-03T02:25:59.223Z,-7.80
2018-03-03T02:25:59.823Z,-7.80
2018-03-03T02:26:00.422Z,-7.79
2018-03-03T02:26:01.022Z,-7.83
2018-03-03T02:26:01.622Z,-7.81
2018-03-03T02:26:55.676Z,-7.74
2018-03-03T02:26:56.275Z,-7.86
2018-03-03T02:26:56.875Z,-7.81
2018-03-03T02:26:57.475Z,-7.77
2018-03-03T02:26:58.075Z,-7.80
2018-03-03T02:26:58.675Z,-7.80
2018-03-03T02:26:59.274Z,-7.79
2018-03-03T02:27:53.364Z,-7.84
2018-03-03T02:27:53.927Z,-7.80
2018-03-03T02:27:54.527Z,-7.74
2018-03-03T02:27:55.127Z,-7.76
2018-03-03T02:27:55.725Z,-7.79
2018-03-03T02:27:56.327Z,-7.77
2018-03-03T02:27:56.927Z,-7.74
2018-03-03T02:28:50.983Z,-7.81
2018-03-03T02:28:51.578Z,-7.81
2018-03-03T02:28:52.177Z,-7.84
2018-03-03T02:28:52.777Z,-7.83
2018-03-03T02:28:53.380Z,-7.81
2018-03-03T02:28:53.980Z,-7.74
2018-03-03T02:28:54.576Z,-7.79
2018-03-03T02:29:48.633Z,-7.69
2018-03-03T02:29:49.230Z,-7.69
2018-03-03T02:29:49.829Z,-7.80
2018-03-03T02:29:50.429Z,-7.72
2018-03-03T02:29:51.029Z,-7.74
2018-03-03T02:29:51.628Z,-7.74
2018-03-03T02:29:52.229Z,-7.83
2018-03-03T02:30:46.289Z,-7.79
2018-03-03T02:30:46.882Z,-7.76
2018-03-03T02:30:47.483Z,-7.77
2018-03-03T02:30:48.082Z,-7.77
2018-03-03T02:30:48.683Z,-7.77
2018-03-03T02:30:49.284Z,-7.84
2018-03-03T02:30:49.881Z,-7.77
2018-03-03T02:31:43.938Z,-7.68
2018-03-03T02:31:44.534Z,-7.79
2018-03-03T02:31:45.133Z,-7.70
2018-03-03T02:31:45.731Z,-7.79
2018-03-03T02:31:46.335Z,-7.77
2018-03-03T02:31:46.934Z,-7.79
2018-03-03T02:31:47.531Z,-7.83
2018-03-03T02:32:41.591Z,-7.81
2018-03-03T02:32:42.186Z,-7.77
2018-03-03T02:32:42.785Z,-7.80
2018-03-03T02:32:43.385Z,-7.79
2018-03-03T02:32:43.987Z,-7.76
2018-03-03T02:32:44.585Z,-7.86
2018-03-03T02:32:45.183Z,-7.83
2018-03-03T02:33:39.266Z,-7.74
2018-03-03T02:33:39.837Z,-7.81
2018-03-03T02:33:40.436Z,-7.79
2018-03-03T02:33:41.042Z,-7.80
2018-03-03T02:33:41.636Z,-7.79
2018-03-03T02:33:42.237Z,-7.77
2018-03-03T02:33:42.836Z,-7.77
2018-03-03T02:34:36.896Z,-7.80
2018-03-03T02:34:37.490Z,-7.77
2018-03-03T02:34:38.089Z,-7.74
2018-03-03T02:34:38.687Z,-7.86
2018-03-03T02:34:39.287Z,-7.76
2018-03-03T02:34:39.888Z,-7.81
2018-03-03T02:34:40.490Z,-7.77
2018-03-03T02:35:34.544Z,-7.74
2018-03-03T02:35:35.141Z,-7.81
2018-03-03T02:35:35.741Z,-7.79
2018-03-03T02:35:36.339Z,-7.80
2018-03-03T02:35:36.942Z,-7.77
2018-03-03T02:35:37.539Z,-7.80
2018-03-03T02:35:38.142Z,-7.79
2018-03-03T02:36:32.196Z,-7.79
2018-03-03T02:36:32.793Z,-7.79
2018-03-03T02:36:33.392Z,-7.79
2018-03-03T02:36:33.992Z,-7.77
2018-03-03T02:36:34.591Z,-7.83
2018-03-03T02:36:35.191Z,-7.80
2018-03-03T02:36:35.791Z,-7.79
2018-03-03T02:37:29.850Z,-7.83
2018-03-03T02:37:30.446Z,-7.80
2018-03-03T02:37:31.041Z,-7.74
2018-03-03T02:37:31.641Z,-7.81
2018-03-03T02:37:32.240Z,-7.77
2018-03-03T02:37:32.854Z,-7.79
2018-03-03T02:37:33.439Z,-7.80
2018-03-03T02:38:27.529Z,-7.74
2018-03-03T02:38:28.095Z,-7.74
2018-03-03T02:38:28.695Z,-7.83
2018-03-03T02:38:29.296Z,-7.77
2018-03-03T02:38:29.894Z,-7.72
2018-03-03T02:38:30.493Z,-7.79
2018-03-03T02:38:31.096Z,-7.80
2018-03-03T02:39:25.154Z,-7.68
2018-03-03T02:39:25.747Z,-7.76
2018-03-03T02:39:26.345Z,-7.76
2018-03-03T02:39:26.945Z,-7.81
2018-03-03T02:39:27.544Z,-7.69
2018-03-03T02:39:28.146Z,-7.72
2018-03-03T02:39:28.747Z,-7.86
2018-03-03T02:56:50.916Z,-8.02
2018-03-03T02:56:51.458Z,-8.06
2018-03-03T02:56:52.059Z,-8.09
2018-03-03T02:56:52.670Z,-8.16
2018-03-03T02:56:53.259Z,-8.08
2018-03-03T02:56:53.857Z,-8.06
2018-03-03T02:56:54.458Z,-8.05
2018-03-03T02:57:48.003Z,-8.10
2018-03-03T02:57:48.598Z,-8.05
2018-03-03T02:57:49.199Z,-8.06
2018-03-03T02:57:49.799Z,-8.14
2018-03-03T02:57:50.398Z,-8.06
2018-03-03T02:57:50.997Z,-8.08
2018-03-03T02:57:51.599Z,-8.14
2018-03-03T02:57:52.198Z,-8.06
2018-03-03T02:58:46.166Z,-8.13
2018-03-03T02:58:46.764Z,-8.20
2018-03-03T02:58:47.363Z,-8.09
2018-03-03T02:58:47.969Z,-8.13
2018-03-03T02:58:48.562Z,-8.13
2018-03-03T02:58:49.165Z,-8.09
2018-03-03T02:58:49.761Z,-8.21
2018-03-03T02:59:44.434Z,-8.10
2018-03-03T02:59:45.029Z,-8.24
2018-03-03T02:59:45.631Z,-8.24
2018-03-03T02:59:46.228Z,-8.10
2018-03-03T02:59:46.828Z,-8.09
2018-03-03T02:59:47.429Z,-8.24
2018-03-03T02:59:48.029Z,-8.26
2018-03-03T03:00:41.984Z,-8.16
2018-03-03T03:00:42.578Z,-8.20
2018-03-03T03:00:43.187Z,-8.17
2018-03-03T03:00:43.779Z,-8.13
2018-03-03T03:00:44.378Z,-8.20
2018-03-03T03:00:44.977Z,-8.23
2018-03-03T03:00:45.582Z,-8.21
2018-03-03T03:01:59.638Z,-8.17
2018-03-03T03:02:00.200Z,-8.16
2018-03-03T03:02:00.799Z,-8.21
2018-03-03T03:02:01.398Z,-8.14
2018-03-03T03:02:02.000Z,-8.26
2018-03-03T03:02:02.598Z,-8.08
2018-03-03T03:02:03.202Z,-8.13
2018-03-03T03:02:57.160Z,-8.17
2018-03-03T03:02:57.749Z,-8.14
2018-03-03T03:02:58.349Z,-8.09
2018-03-03T03:02:58.950Z,-8.13
2018-03-03T03:02:59.548Z,-8.17
2018-03-03T03:03:00.147Z,-8.08
2018-03-03T03:03:00.747Z,-8.09
2018-03-03T03:04:14.772Z,-8.19
2018-03-03T03:04:15.369Z,-8.17
2018-03-03T03:04:15.968Z,-8.23
2018-03-03T03:04:16.568Z,-8.21
2018-03-03T03:04:17.168Z,-8.17
2018-03-03T03:04:17.767Z,-8.17
2018-03-03T03:04:18.374Z,-8.19
2018-03-03T03:05:12.322Z,-8.27
2018-03-03T03:05:12.919Z,-8.24
2018-03-03T03:05:13.519Z,-8.24
2018-03-03T03:05:14.125Z,-8.29
2018-03-03T03:05:14.719Z,-8.26
2018-03-03T03:05:15.317Z,-8.29
2018-03-03T03:05:15.919Z,-8.29
2018-03-03T03:06:29.942Z,-8.29
2018-03-03T03:06:30.539Z,-8.26
2018-03-03T03:06:31.139Z,-8.27
2018-03-03T03:06:31.739Z,-8.31
2018-03-03T03:06:32.338Z,-8.26
2018-03-03T03:06:32.940Z,-8.26
2018-03-03T03:06:33.537Z,-8.26
2018-03-03T03:07:27.517Z,-8.29
2018-03-03T03:07:28.087Z,-8.23
2018-03-03T03:07:28.688Z,-8.20
2018-03-03T03:07:29.287Z,-8.32
2018-03-03T03:07:29.887Z,-8.26
2018-03-03T03:07:30.486Z,-8.31
2018-03-03T03:07:31.087Z,-8.24
2018-03-03T03:08:45.111Z,-8.16
2018-03-03T03:08:45.709Z,-8.21
2018-03-03T03:08:46.310Z,-8.16
2018-03-03T03:08:46.905Z,-8.16
2018-03-03T03:08:47.505Z,-8.24
2018-03-03T03:08:48.104Z,-8.21
2018-03-03T03:08:48.707Z,-8.16
2018-03-03T03:09:42.761Z,-8.23
2018-03-03T03:09:43.359Z,-8.20
2018-03-03T03:09:43.960Z,-8.23
2018-03-03T03:09:44.559Z,-8.21
2018-03-03T03:09:45.158Z,-8.23
2018-03-03T03:09:45.759Z,-8.16
2018-03-03T03:09:46.358Z,-8.19
2018-03-03T03:10:40.314Z,-8.24
2018-03-03T03:10:40.910Z,-8.20
2018-03-03T03:10:41.508Z,-8.29
2018-03-03T03:10:42.109Z,-8.31
2018-03-03T03:10:42.708Z,-8.20
2018-03-03T03:10:43.308Z,-8.26
2018-03-03T03:10:43.911Z,-8.26
2018-03-03T03:11:57.933Z,-8.26
2018-03-03T03:11:58.531Z,-8.10
2018-03-03T03:11:59.129Z,-8.19
2018-03-03T03:11:59.733Z,-8.27
2018-03-03T03:12:00.328Z,-8.29
2018-03-03T03:12:00.928Z,-8.20
2018-03-03T03:12:01.528Z,-8.27
2018-03-03T03:12:55.615Z,-8.14
2018-03-03T03:12:56.181Z,-8.08
2018-03-03T03:12:56.781Z,-8.26
2018-03-03T03:12:57.380Z,-8.16
2018-03-03T03:12:57.980Z,-8.14
2018-03-03T03:12:58.580Z,-8.13
2018-03-03T03:12:59.180Z,-8.21
2018-03-03T03:13:53.235Z,-8.16
2018-03-03T03:13:53.833Z,-8.10
2018-03-03T03:13:54.434Z,-8.09
2018-03-03T03:13:55.034Z,-8.13
2018-03-03T03:13:55.633Z,-8.13
2018-03-03T03:13:56.238Z,-8.16
2018-03-03T03:13:56.831Z,-8.14
2018-03-03T03:14:50.888Z,-8.13
2018-03-03T03:14:51.485Z,-8.03
2018-03-03T03:14:52.084Z,-8.09
2018-03-03T03:14:52.684Z,-8.08
2018-03-03T03:14:53.284Z,-8.10
2018-03-03T03:14:53.884Z,-8.13
2018-03-03T03:14:54.484Z,-8.14
2018-03-03T03:15:48.540Z,-8.14
2018-03-03T03:15:49.135Z,-8.10
2018-03-03T03:15:49.735Z,-8.10
2018-03-03T03:15:50.334Z,-8.20
2018-03-03T03:15:50.934Z,-8.14
2018-03-03T03:15:51.535Z,-8.16
2018-03-03T03:15:52.134Z,-8.16
2018-03-03T03:16:46.192Z,-8.06
2018-03-03T03:16:46.787Z,-7.97
2018-03-03T03:16:47.387Z,-8.06
2018-03-03T03:16:47.986Z,-8.02
2018-03-03T03:16:48.587Z,-8.05
2018-03-03T03:16:49.186Z,-8.08
2018-03-03T03:16:49.786Z,-8.10
2018-03-03T03:17:43.842Z,-7.99
2018-03-03T03:17:44.440Z,-8.05
2018-03-03T03:17:45.040Z,-8.03
2018-03-03T03:17:45.642Z,-8.06
2018-03-03T03:17:46.239Z,-8.03
2018-03-03T03:17:46.838Z,-8.05
2018-03-03T03:17:47.445Z,-8.03
2018-03-03T03:18:41.522Z,-8.06
2018-03-03T03:18:42.090Z,-8.06
2018-03-03T03:18:42.690Z,-8.09
2018-03-03T03:18:43.289Z,-8.02
2018-03-03T03:18:43.890Z,-8.06
2018-03-03T03:18:44.494Z,-8.08
2018-03-03T03:18:45.089Z,-8.02
2018-03-03T03:19:39.146Z,-8.02
2018-03-03T03:19:39.743Z,-7.97
2018-03-03T03:19:40.359Z,-8.10
2018-03-03T03:19:40.940Z,-8.06
2018-03-03T03:19:41.540Z,-8.09
2018-03-03T03:19:42.141Z,-8.05
2018-03-03T03:19:42.740Z,-8.06
2018-03-03T03:20:36.797Z,-7.97
2018-03-03T03:20:37.395Z,-8.03
2018-03-03T03:20:37.994Z,-8.03
2018-03-03T03:20:38.596Z,-7.97
2018-03-03T03:20:39.194Z,-7.97
2018-03-03T03:20:39.793Z,-7.98
2018-03-03T03:20:40.392Z,-8.08
2018-03-03T03:21:34.449Z,-7.98
2018-03-03T03:21:35.046Z,-7.99
2018-03-03T03:21:35.646Z,-7.91
2018-03-03T03:21:36.248Z,-7.99
2018-03-03T03:21:36.845Z,-7.98
2018-03-03T03:21:37.449Z,-7.94
2018-03-03T03:21:38.044Z,-8.06
2018-03-03T03:22:32.099Z,-7.98
2018-03-03T03:22:32.697Z,-7.94
2018-03-03T03:22:33.298Z,-7.97
2018-03-03T03:22:33.897Z,-7.99
2018-03-03T03:22:34.497Z,-7.95
2018-03-03T03:22:35.096Z,-7.98
2018-03-03T03:22:35.703Z,-7.95
2018-03-03T03:23:29.784Z,-8.02
2018-03-03T03:23:30.355Z,-7.94
2018-03-03T03:23:30.950Z,-7.99
2018-03-03T03:23:31.548Z,-7.90
2018-03-03T03:23:32.149Z,-8.02
2018-03-03T03:23:32.749Z,-7.98
2018-03-03T03:23:33.348Z,-7.91
2018-03-03T03:24:31.809Z,-7.98
2018-03-03T03:24:32.404Z,-7.97
2018-03-03T03:24:33.003Z,-7.99
2018-03-03T03:24:33.606Z,-8.03
2018-03-03T03:24:34.203Z,-8.03
2018-03-03T03:24:34.801Z,-7.99
2018-03-03T03:24:35.404Z,-7.91
2018-03-03T03:24:36.001Z,-7.91
2018-03-03T03:24:36.602Z,-8.03
2018-03-03T03:24:37.202Z,-7.91
2018-03-03T03:24:37.801Z,-7.97
2018-03-03T03:24:38.400Z,-7.97
2018-03-03T03:24:38.999Z,-7.98
2018-03-03T03:24:39.600Z,-8.05
2018-03-03T03:24:40.199Z,-8.09
2018-03-03T03:24:40.799Z,-7.95
2018-03-03T03:24:41.400Z,-7.97
2018-03-03T03:25:38.369Z,-7.97
2018-03-03T03:25:38.964Z,-7.90
2018-03-03T03:25:39.568Z,-7.94
2018-03-03T03:26:38.068Z,-7.95
2018-03-03T03:26:38.664Z,-7.91
2018-03-03T03:26:39.267Z,-7.98
2018-03-03T03:26:39.866Z,-7.86
2018-03-03T03:26:40.464Z,-7.90
2018-03-03T03:26:41.069Z,-7.95
2018-03-03T03:26:41.664Z,-7.98
2018-03-03T03:26:42.265Z,-7.95
2018-03-03T03:26:42.863Z,-8.02
2018-03-03T03:26:43.467Z,-7.95
2018-03-03T03:26:44.061Z,-7.97
2018-03-03T03:26:44.662Z,-7.94
2018-03-03T03:26:45.262Z,-7.87
2018-03-03T03:26:45.861Z,-7.95
2018-03-03T03:26:46.461Z,-7.95
2018-03-03T03:26:47.061Z,-7.94
2018-03-03T04:11:56.448Z,-8.35
2018-03-03T04:11:56.991Z,-8.27
2018-03-03T04:11:57.590Z,-8.32
2018-03-03T04:11:58.195Z,-8.32
2018-03-03T04:11:58.789Z,-8.35
2018-03-03T04:11:59.388Z,-8.37
2018-03-03T04:11:59.990Z,-8.26
2018-03-03T04:12:53.944Z,-8.37
2018-03-03T04:12:54.541Z,-8.35
2018-03-03T04:12:55.140Z,-8.29
2018-03-03T04:12:55.739Z,-8.32
2018-03-03T04:12:56.340Z,-8.37
2018-03-03T04:12:56.944Z,-8.34
2018-03-03T04:12:57.540Z,-8.38
2018-03-03T04:14:11.599Z,-8.41
2018-03-03T04:14:12.163Z,-8.38
2018-03-03T04:14:12.761Z,-8.32
2018-03-03T04:14:13.360Z,-8.34
2018-03-03T04:14:13.960Z,-8.32
2018-03-03T04:14:14.560Z,-8.35
2018-03-03T04:14:15.159Z,-8.34
2018-03-03T04:15:09.116Z,-8.29
2018-03-03T04:15:09.712Z,-8.44
2018-03-03T04:15:10.313Z,-8.41
2018-03-03T04:15:10.913Z,-8.35
2018-03-03T04:15:11.510Z,-8.35
2018-03-03T04:15:12.110Z,-8.47
2018-03-03T04:15:12.713Z,-8.34
2018-03-03T04:16:26.734Z,-8.29
2018-03-03T04:16:27.333Z,-8.48
2018-03-03T04:16:27.932Z,-8.39
2018-03-03T04:16:28.530Z,-8.42
2018-03-03T04:16:29.131Z,-8.45
2018-03-03T04:16:29.730Z,-8.44
2018-03-03T04:16:30.369Z,-8.39
2018-03-03T04:17:24.285Z,-8.41
2018-03-03T04:17:24.882Z,-8.41
2018-03-03T04:17:25.484Z,-8.37
2018-03-03T04:17:26.081Z,-8.37
2018-03-03T04:17:26.680Z,-8.37
2018-03-03T04:17:27.280Z,-8.47
2018-03-03T04:17:27.881Z,-8.37
2018-03-03T04:18:41.905Z,-8.39
2018-03-03T04:18:42.501Z,-8.55
2018-03-03T04:18:43.103Z,-8.45
2018-03-03T04:18:43.699Z,-8.55
2018-03-03T04:18:44.301Z,-8.55
2018-03-03T04:18:44.900Z,-8.39
2018-03-03T04:18:45.500Z,-8.47
2018-03-03T04:19:39.486Z,-8.38
2018-03-03T04:19:40.052Z,-8.38
2018-03-03T04:19:40.652Z,-8.42
2018-03-03T04:19:41.249Z,-8.38
2018-03-03T04:19:41.851Z,-8.37
2018-03-03T04:19:42.452Z,-8.41
2018-03-03T04:19:43.049Z,-8.38
2018-03-03T04:20:57.075Z,-8.44
2018-03-03T04:20:57.672Z,-8.47
2018-03-03T04:20:58.270Z,-8.37
2018-03-03T04:20:58.870Z,-8.37
2018-03-03T04:20:59.470Z,-8.44
2018-03-03T04:21:00.073Z,-8.47
2018-03-03T04:21:00.668Z,-8.42
2018-03-03T04:21:54.724Z,-8.29
2018-03-03T04:21:55.323Z,-8.31
2018-03-03T04:21:55.922Z,-8.42
2018-03-03T04:21:56.522Z,-8.35
2018-03-03T04:21:57.122Z,-8.34
2018-03-03T04:21:57.721Z,-8.42
2018-03-03T04:21:58.320Z,-8.44
2018-03-03T04:22:52.275Z,-8.37
2018-03-03T04:22:52.872Z,-8.39
2018-03-03T04:22:53.471Z,-8.34
2018-03-03T04:22:54.071Z,-8.37
2018-03-03T04:22:54.672Z,-8.37
2018-03-03T04:22:55.271Z,-8.41
2018-03-03T04:22:55.871Z,-8.37
2018-03-03T04:24:09.894Z,-8.38
2018-03-03T04:24:10.491Z,-8.41
2018-03-03T04:24:11.091Z,-8.38
2018-03-03T04:24:11.691Z,-8.35
2018-03-03T04:24:12.290Z,-8.41
2018-03-03T04:24:12.890Z,-8.31
2018-03-03T04:24:13.491Z,-8.34
2018-03-03T04:25:07.469Z,-8.38
2018-03-03T04:25:08.041Z,-8.45
2018-03-03T04:25:08.640Z,-8.32
2018-03-03T04:25:09.241Z,-8.35
2018-03-03T04:25:09.840Z,-8.41
2018-03-03T04:25:10.439Z,-8.35
2018-03-03T04:25:11.040Z,-8.34
2018-03-03T04:26:25.064Z,-8.31
2018-03-03T04:26:25.662Z,-8.27
2018-03-03T04:26:26.260Z,-8.37
2018-03-03T04:26:26.861Z,-8.27
2018-03-03T04:26:27.460Z,-8.31
2018-03-03T04:26:28.060Z,-8.37
2018-03-03T04:26:28.659Z,-8.32
2018-03-03T04:27:22.716Z,-8.26
2018-03-03T04:27:23.316Z,-8.26
2018-03-03T04:27:23.914Z,-8.26
2018-03-03T04:27:24.512Z,-8.24
2018-03-03T04:27:25.111Z,-8.24
2018-03-03T04:27:25.711Z,-8.27
2018-03-03T04:27:26.310Z,-8.26
2018-03-03T04:28:20.370Z,-8.31
2018-03-03T04:28:20.966Z,-8.23
2018-03-03T04:28:21.565Z,-8.21
2018-03-03T04:28:22.163Z,-8.26
2018-03-03T04:28:22.764Z,-8.29
2018-03-03T04:28:23.364Z,-8.19
2018-03-03T04:28:23.963Z,-8.21
2018-03-03T04:29:18.024Z,-8.26
2018-03-03T04:29:18.618Z,-8.26
2018-03-03T04:29:19.216Z,-8.26
2018-03-03T04:29:19.816Z,-8.27
2018-03-03T04:29:20.415Z,-8.27
2018-03-03T04:29:21.016Z,-8.27
2018-03-03T04:29:21.616Z,-8.27
2018-03-03T04:30:15.697Z,-8.17
2018-03-03T04:30:16.268Z,-8.27
2018-03-03T04:30:16.869Z,-8.26
2018-03-03T04:30:17.470Z,-8.31
2018-03-03T04:30:18.067Z,-8.31
2018-03-03T04:30:18.669Z,-8.31
2018-03-03T04:30:19.267Z,-8.17
2018-03-03T04:31:13.321Z,-8.19
2018-03-03T04:31:13.922Z,-8.13
2018-03-03T04:31:14.521Z,-8.26
2018-03-03T04:31:15.120Z,-8.24
2018-03-03T04:31:15.719Z,-8.26
2018-03-03T04:31:16.319Z,-8.17
2018-03-03T04:31:16.917Z,-8.24
2018-03-03T04:32:10.975Z,-8.16
2018-03-03T04:32:11.575Z,-8.24
2018-03-03T04:32:12.170Z,-8.16
2018-03-03T04:32:12.770Z,-8.20
2018-03-03T04:32:13.369Z,-8.27
2018-03-03T04:32:13.970Z,-8.26
2018-03-03T04:32:14.568Z,-8.14
2018-03-03T04:33:08.625Z,-8.17
2018-03-03T04:33:09.223Z,-8.19
2018-03-03T04:33:09.823Z,-8.27
2018-03-03T04:33:10.424Z,-8.17
2018-03-03T04:33:11.023Z,-8.21
2018-03-03T04:33:11.621Z,-8.20
2018-03-03T04:33:12.223Z,-8.14
2018-03-03T04:34:06.286Z,-8.09